sensor_id;sensor_type;location;lat;lon;timestamp;pressure;altitude;pressure_sealevel;temperature;humidity
78313;BME280;67568;47.438;21.408;2023-02-15T00:00:44;102272.88;;;2.52;76.35
78313;BME280;67568;47.438;21.408;2023-02-15T00:03:11;102270.78;;;2.54;76.44
78313;BME280;67568;47.438;21.408;2023-02-15T00:05:37;102261.72;;;2.53;75.74
78313;BME280;67568;47.438;21.408;2023-02-15T00:08:04;102273.13;;;2.57;76.18
78313;BME280;67568;47.438;21.408;2023-02-15T00:10:31;102262.75;;;2.45;75.00
78313;BME280;67568;47.438;21.408;2023-02-15T00:12:59;102273.47;;;2.47;75.87
78313;BME280;67568;47.438;21.408;2023-02-15T00:15:26;102279.56;;;2.42;75.42
78313;BME280;67568;47.438;21.408;2023-02-15T00:17:52;102267.53;;;2.37;76.08
78313;BME280;67568;47.438;21.408;2023-02-15T00:20:19;102266.28;;;2.39;76.14
78313;BME280;67568;47.438;21.408;2023-02-15T00:22:46;102263.31;;;2.41;75.68
78313;BME280;67568;47.438;21.408;2023-02-15T00:25:12;102266.91;;;2.41;75.85
78313;BME280;67568;47.438;21.408;2023-02-15T00:27:39;102272.19;;;2.43;75.50
78313;BME280;67568;47.438;21.408;2023-02-15T00:30:06;102267.75;;;2.42;76.14
78313;BME280;67568;47.438;21.408;2023-02-15T00:32:33;102267.06;;;2.33;76.79
78313;BME280;67568;47.438;21.408;2023-02-15T00:35:00;102274.28;;;2.41;76.51
78313;BME280;67568;47.438;21.408;2023-02-15T00:37:28;102273.41;;;2.34;76.20
78313;BME280;67568;47.438;21.408;2023-02-15T00:39:55;102270.25;;;2.37;76.13
78313;BME280;67568;47.438;21.408;2023-02-15T00:42:21;102266.91;;;2.41;76.30
78313;BME280;67568;47.438;21.408;2023-02-15T00:44:48;102268.41;;;2.44;75.92
78313;BME280;67568;47.438;21.408;2023-02-15T00:47:15;102264.63;;;2.45;75.47
78313;BME280;67568;47.438;21.408;2023-02-15T00:49:41;102271.13;;;2.44;76.06
78313;BME280;67568;47.438;21.408;2023-02-15T00:52:08;102264.13;;;2.35;76.12
78313;BME280;67568;47.438;21.408;2023-02-15T00:54:34;102265.38;;;2.32;76.34
78313;BME280;67568;47.438;21.408;2023-02-15T00:57:01;102260.72;;;2.26;75.87
78313;BME280;67568;47.438;21.408;2023-02-15T00:59:28;102264.94;;;2.29;76.61
78313;BME280;67568;47.438;21.408;2023-02-15T01:01:54;102254.00;;;2.29;75.63
78313;BME280;67568;47.438;21.408;2023-02-15T01:04:21;102251.06;;;2.30;76.27
78313;BME280;67568;47.438;21.408;2023-02-15T01:06:48;102255.03;;;2.28;75.61
78313;BME280;67568;47.438;21.408;2023-02-15T01:09:14;102253.59;;;2.32;76.32
78313;BME280;67568;47.438;21.408;2023-02-15T01:11:41;102248.94;;;2.25;75.92
78313;BME280;67568;47.438;21.408;2023-02-15T01:14:07;102251.91;;;2.31;75.64
78313;BME280;67568;47.438;21.408;2023-02-15T01:16:34;102255.28;;;2.33;75.94
78313;BME280;67568;47.438;21.408;2023-02-15T01:19:01;102241.41;;;2.34;75.57
78313;BME280;67568;47.438;21.408;2023-02-15T01:21:27;102243.06;;;2.29;76.46
78313;BME280;67568;47.438;21.408;2023-02-15T01:23:54;102238.03;;;2.32;75.67
78313;BME280;67568;47.438;21.408;2023-02-15T01:26:21;102236.75;;;2.28;75.00
78313;BME280;67568;47.438;21.408;2023-02-15T01:28:47;102234.19;;;2.27;74.79
78313;BME280;67568;47.438;21.408;2023-02-15T01:31:17;102228.72;;;2.27;75.22
78313;BME280;67568;47.438;21.408;2023-02-15T01:33:45;102227.06;;;2.25;74.75
78313;BME280;67568;47.438;21.408;2023-02-15T01:36:12;102234.16;;;2.20;75.20
78313;BME280;67568;47.438;21.408;2023-02-15T01:38:39;102232.63;;;2.11;75.58
78313;BME280;67568;47.438;21.408;2023-02-15T01:41:06;102227.34;;;2.09;74.82
78313;BME280;67568;47.438;21.408;2023-02-15T01:43:44;102218.09;;;2.10;75.68
78313;BME280;67568;47.438;21.408;2023-02-15T01:46:13;102228.63;;;2.13;76.40
78313;BME280;67568;47.438;21.408;2023-02-15T01:48:45;102225.53;;;2.16;74.80
78313;BME280;67568;47.438;21.408;2023-02-15T01:51:13;102223.97;;;2.07;75.00
78313;BME280;67568;47.438;21.408;2023-02-15T01:53:57;102217.63;;;2.00;75.26
78313;BME280;67568;47.438;21.408;2023-02-15T01:56:28;102215.16;;;2.05;74.96
78313;BME280;67568;47.438;21.408;2023-02-15T01:59:00;102217.63;;;2.00;75.30
78313;BME280;67568;47.438;21.408;2023-02-15T02:01:29;102218.81;;;1.91;74.48
78313;BME280;67568;47.438;21.408;2023-02-15T02:04:04;102206.19;;;1.90;75.82
78313;BME280;67568;47.438;21.408;2023-02-15T02:06:35;102203.44;;;1.90;75.44
78313;BME280;67568;47.438;21.408;2023-02-15T02:09:02;102210.78;;;1.83;75.98
78313;BME280;67568;47.438;21.408;2023-02-15T02:11:29;102202.34;;;1.84;75.46
78313;BME280;67568;47.438;21.408;2023-02-15T02:13:55;102204.38;;;1.75;75.40
78313;BME280;67568;47.438;21.408;2023-02-15T02:22:46;102203.34;;;1.76;76.47
78313;BME280;67568;47.438;21.408;2023-02-15T02:34:48;102200.97;;;1.67;75.33
78313;BME280;67568;47.438;21.408;2023-02-15T02:47:49;102200.38;;;1.50;76.25
78313;BME280;67568;47.438;21.408;2023-02-15T02:50:22;102200.38;;;1.50;76.21
78313;BME280;67568;47.438;21.408;2023-02-15T02:52:52;102196.63;;;1.51;76.18
78313;BME280;67568;47.438;21.408;2023-02-15T02:58:05;102214.03;;;1.50;76.09
78313;BME280;67568;47.438;21.408;2023-02-15T03:00:45;102212.53;;;1.47;76.12
78313;BME280;67568;47.438;21.408;2023-02-15T03:03:27;102212.09;;;1.44;76.45
78313;BME280;67568;47.438;21.408;2023-02-15T03:06:00;102223.66;;;1.24;75.04
78313;BME280;67568;47.438;21.408;2023-02-15T03:08:38;102217.75;;;1.21;74.85
78313;BME280;67568;47.438;21.408;2023-02-15T03:11:07;102214.81;;;1.22;76.21
78313;BME280;67568;47.438;21.408;2023-02-15T03:13:35;102212.47;;;1.19;76.12
78313;BME280;67568;47.438;21.408;2023-02-15T03:16:03;102218.91;;;1.11;76.90
78313;BME280;67568;47.438;21.408;2023-02-15T03:18:37;102217.00;;;0.90;76.00
78313;BME280;67568;47.438;21.408;2023-02-15T03:21:07;102220.94;;;0.88;77.17
78313;BME280;67568;47.438;21.408;2023-02-15T03:23:35;102227.66;;;0.85;77.65
78313;BME280;67568;47.438;21.408;2023-02-15T03:26:05;102237.69;;;0.85;78.08
78313;BME280;67568;47.438;21.408;2023-02-15T03:28:41;102242.03;;;0.79;77.66
78313;BME280;67568;47.438;21.408;2023-02-15T03:31:09;102238.66;;;0.77;77.66
78313;BME280;67568;47.438;21.408;2023-02-15T03:33:42;102241.09;;;0.87;76.36
78313;BME280;67568;47.438;21.408;2023-02-15T03:38:49;102231.50;;;0.76;76.12
78313;BME280;67568;47.438;21.408;2023-02-15T03:41:19;102235.94;;;0.77;77.41
78313;BME280;67568;47.438;21.408;2023-02-15T03:49:02;102249.41;;;0.49;77.13
78313;BME280;67568;47.438;21.408;2023-02-15T03:51:33;102245.19;;;0.47;77.47
78313;BME280;67568;47.438;21.408;2023-02-15T03:56:34;102239.06;;;0.44;77.36
78313;BME280;67568;47.438;21.408;2023-02-15T03:59:02;102237.38;;;0.43;77.65
78313;BME280;67568;47.438;21.408;2023-02-15T04:01:38;102238.31;;;0.51;77.90
78313;BME280;67568;47.438;21.408;2023-02-15T04:04:17;102240.41;;;0.49;77.12
78313;BME280;67568;47.438;21.408;2023-02-15T04:06:45;102246.31;;;0.52;76.11
78313;BME280;67568;47.438;21.408;2023-02-15T04:09:12;102243.59;;;0.52;77.56
78313;BME280;67568;47.438;21.408;2023-02-15T04:11:38;102234.09;;;0.63;76.55
78313;BME280;67568;47.438;21.408;2023-02-15T04:14:05;102239.72;;;0.61;76.19
78313;BME280;67568;47.438;21.408;2023-02-15T04:16:32;102240.56;;;0.62;76.45
78313;BME280;67568;47.438;21.408;2023-02-15T04:18:58;102242.91;;;0.50;77.45
78313;BME280;67568;47.438;21.408;2023-02-15T04:21:27;102235.19;;;0.54;77.65
78313;BME280;67568;47.438;21.408;2023-02-15T04:23:53;102238.22;;;0.59;78.12
78313;BME280;67568;47.438;21.408;2023-02-15T04:26:20;102245.84;;;0.63;77.77
78313;BME280;67568;47.438;21.408;2023-02-15T04:28:47;102243.94;;;0.64;77.03
78313;BME280;67568;47.438;21.408;2023-02-15T04:31:13;102237.53;;;0.57;75.87
78313;BME280;67568;47.438;21.408;2023-02-15T04:33:40;102244.50;;;0.44;75.94
78313;BME280;67568;47.438;21.408;2023-02-15T04:36:06;102244.97;;;0.33;77.72
78313;BME280;67568;47.438;21.408;2023-02-15T04:38:33;102247.63;;;0.27;76.68
78313;BME280;67568;47.438;21.408;2023-02-15T04:41:00;102249.75;;;0.31;76.73
78313;BME280;67568;47.438;21.408;2023-02-15T04:43:26;102245.28;;;0.38;76.33
78313;BME280;67568;47.438;21.408;2023-02-15T04:45:53;102246.50;;;0.36;77.18
78313;BME280;67568;47.438;21.408;2023-02-15T04:48:19;102253.16;;;0.33;77.03
78313;BME280;67568;47.438;21.408;2023-02-15T04:50:46;102244.59;;;0.36;78.12
78313;BME280;67568;47.438;21.408;2023-02-15T04:53:13;102250.72;;;0.38;77.47
78313;BME280;67568;47.438;21.408;2023-02-15T04:55:39;102245.66;;;0.35;78.10
78313;BME280;67568;47.438;21.408;2023-02-15T04:58:06;102244.44;;;0.38;77.62
78313;BME280;67568;47.438;21.408;2023-02-15T05:00:32;102249.03;;;0.37;77.23
78313;BME280;67568;47.438;21.408;2023-02-15T05:02:59;102254.59;;;0.44;76.99
78313;BME280;67568;47.438;21.408;2023-02-15T05:05:26;102235.66;;;0.42;78.60
78313;BME280;67568;47.438;21.408;2023-02-15T05:07:53;102246.47;;;0.51;77.75
78313;BME280;67568;47.438;21.408;2023-02-15T05:10:19;102250.72;;;0.53;77.75
78313;BME280;67568;47.438;21.408;2023-02-15T05:12:46;102248.56;;;0.34;77.37
78313;BME280;67568;47.438;21.408;2023-02-15T05:15:13;102251.56;;;0.39;78.08
78313;BME280;67568;47.438;21.408;2023-02-15T05:17:40;102249.69;;;0.39;77.67
78313;BME280;67568;47.438;21.408;2023-02-15T05:20:07;102257.59;;;0.34;77.64
78313;BME280;67568;47.438;21.408;2023-02-15T05:22:34;102254.75;;;0.28;78.20
78313;BME280;67568;47.438;21.408;2023-02-15T05:25:00;102262.75;;;0.29;76.77
78313;BME280;67568;47.438;21.408;2023-02-15T05:27:27;102267.31;;;0.14;77.35
78313;BME280;67568;47.438;21.408;2023-02-15T05:29:53;102272.59;;;0.01;77.98
78313;BME280;67568;47.438;21.408;2023-02-15T05:32:20;102263.06;;;-0.04;77.64
78313;BME280;67568;47.438;21.408;2023-02-15T05:34:47;102270.88;;;-0.01;78.68
78313;BME280;67568;47.438;21.408;2023-02-15T05:37:14;102272.13;;;0.12;77.63
78313;BME280;67568;47.438;21.408;2023-02-15T05:39:40;102280.88;;;0.07;77.57
78313;BME280;67568;47.438;21.408;2023-02-15T05:42:07;102279.06;;;-0.01;77.59
78313;BME280;67568;47.438;21.408;2023-02-15T05:44:33;102284.69;;;-0.02;78.15
78313;BME280;67568;47.438;21.408;2023-02-15T05:47:00;102287.44;;;-0.02;77.29
78313;BME280;67568;47.438;21.408;2023-02-15T05:49:27;102283.66;;;-0.01;77.50
78313;BME280;67568;47.438;21.408;2023-02-15T05:51:53;102287.53;;;0.05;76.77
78313;BME280;67568;47.438;21.408;2023-02-15T05:54:20;102285.94;;;0.10;77.37
78313;BME280;67568;47.438;21.408;2023-02-15T05:56:47;102293.00;;;0.19;76.98
78313;BME280;67568;47.438;21.408;2023-02-15T05:59:13;102303.81;;;0.28;77.05
78313;BME280;67568;47.438;21.408;2023-02-15T06:01:40;102295.66;;;0.28;77.01
78313;BME280;67568;47.438;21.408;2023-02-15T06:04:06;102304.97;;;0.48;75.39
78313;BME280;67568;47.438;21.408;2023-02-15T06:06:33;102312.81;;;0.66;75.91
78313;BME280;67568;47.438;21.408;2023-02-15T06:09:00;102310.34;;;0.86;75.51
78313;BME280;67568;47.438;21.408;2023-02-15T06:11:26;102318.13;;;1.04;74.45
78313;BME280;67568;47.438;21.408;2023-02-15T06:13:53;102317.31;;;1.40;74.60
78313;BME280;67568;47.438;21.408;2023-02-15T06:16:20;102321.75;;;1.41;73.69
78313;BME280;67568;47.438;21.408;2023-02-15T06:18:47;102313.03;;;1.52;73.32
78313;BME280;67568;47.438;21.408;2023-02-15T06:21:13;102310.19;;;1.60;72.71
78313;BME280;67568;47.438;21.408;2023-02-15T06:23:40;102314.09;;;1.72;72.95
78313;BME280;67568;47.438;21.408;2023-02-15T06:26:07;102322.03;;;1.89;72.46
78313;BME280;67568;47.438;21.408;2023-02-15T06:28:33;102316.03;;;2.00;72.61
78313;BME280;67568;47.438;21.408;2023-02-15T06:31:03;102318.72;;;2.21;72.57
78313;BME280;67568;47.438;21.408;2023-02-15T06:33:30;102323.06;;;2.37;70.57
78313;BME280;67568;47.438;21.408;2023-02-15T06:35:57;102318.63;;;2.64;70.45
78313;BME280;67568;47.438;21.408;2023-02-15T06:38:23;102318.28;;;2.74;70.15
78313;BME280;67568;47.438;21.408;2023-02-15T06:40:50;102325.53;;;2.95;69.78
78313;BME280;67568;47.438;21.408;2023-02-15T06:43:19;102321.94;;;3.36;68.57
78313;BME280;67568;47.438;21.408;2023-02-15T06:45:50;102323.34;;;3.93;67.68
78313;BME280;67568;47.438;21.408;2023-02-15T06:48:26;102327.75;;;4.47;66.10
78313;BME280;67568;47.438;21.408;2023-02-15T06:50:55;102317.19;;;5.23;65.17
78313;BME280;67568;47.438;21.408;2023-02-15T06:53:22;102305.13;;;5.69;63.71
78313;BME280;67568;47.438;21.408;2023-02-15T06:55:52;102319.63;;;5.82;61.44
78313;BME280;67568;47.438;21.408;2023-02-15T06:58:22;102317.59;;;6.03;61.66
78313;BME280;67568;47.438;21.408;2023-02-15T07:00:51;102320.25;;;6.16;61.00
78313;BME280;67568;47.438;21.408;2023-02-15T07:03:18;102326.78;;;6.47;60.09
78313;BME280;67568;47.438;21.408;2023-02-15T07:05:46;102329.19;;;7.17;59.99
78313;BME280;67568;47.438;21.408;2023-02-15T07:08:14;102333.34;;;7.56;57.84
78313;BME280;67568;47.438;21.408;2023-02-15T07:10:46;102327.66;;;7.70;57.95
78313;BME280;67568;47.438;21.408;2023-02-15T07:13:15;102331.63;;;8.16;57.36
78313;BME280;67568;47.438;21.408;2023-02-15T07:15:44;102324.19;;;8.16;55.48
78313;BME280;67568;47.438;21.408;2023-02-15T07:18:12;102315.03;;;7.92;56.30
78313;BME280;67568;47.438;21.408;2023-02-15T07:20:40;102326.53;;;7.89;56.58
78313;BME280;67568;47.438;21.408;2023-02-15T07:23:08;102316.69;;;7.93;55.20
78313;BME280;67568;47.438;21.408;2023-02-15T07:25:35;102321.44;;;8.16;56.89
78313;BME280;67568;47.438;21.408;2023-02-15T07:28:03;102327.38;;;8.90;54.80
78313;BME280;67568;47.438;21.408;2023-02-15T07:30:30;102330.09;;;9.02;52.96
78313;BME280;67568;47.438;21.408;2023-02-15T07:32:58;102323.06;;;8.47;55.29
78313;BME280;67568;47.438;21.408;2023-02-15T07:35:26;102326.75;;;8.29;53.97
78313;BME280;67568;47.438;21.408;2023-02-15T07:37:54;102318.19;;;8.19;54.54
78313;BME280;67568;47.438;21.408;2023-02-15T07:40:22;102317.75;;;7.80;56.13
78313;BME280;67568;47.438;21.408;2023-02-15T07:42:50;102317.75;;;7.50;58.03
78313;BME280;67568;47.438;21.408;2023-02-15T07:45:19;102319.13;;;7.71;56.65
78313;BME280;67568;47.438;21.408;2023-02-15T07:47:47;102318.41;;;7.64;57.97
78313;BME280;67568;47.438;21.408;2023-02-15T07:50:14;102310.81;;;7.89;57.33
78313;BME280;67568;47.438;21.408;2023-02-15T07:52:41;102312.13;;;7.87;57.75
78313;BME280;67568;47.438;21.408;2023-02-15T07:55:08;102315.66;;;8.06;56.02
78313;BME280;67568;47.438;21.408;2023-02-15T07:57:35;102317.47;;;8.24;56.68
78313;BME280;67568;47.438;21.408;2023-02-15T08:00:03;102321.34;;;8.34;55.42
78313;BME280;67568;47.438;21.408;2023-02-15T08:02:31;102323.88;;;8.48;54.78
78313;BME280;67568;47.438;21.408;2023-02-15T08:04:59;102323.06;;;8.47;55.05
78313;BME280;67568;47.438;21.408;2023-02-15T08:07:28;102326.66;;;8.48;56.27
78313;BME280;67568;47.438;21.408;2023-02-15T08:09:56;102325.81;;;8.59;55.13
78313;BME280;67568;47.438;21.408;2023-02-15T08:12:26;102321.41;;;9.34;55.29
78313;BME280;67568;47.438;21.408;2023-02-15T08:14:53;102321.03;;;9.59;53.67
78313;BME280;67568;47.438;21.408;2023-02-15T08:17:20;102325.56;;;10.95;48.33
78313;BME280;67568;47.438;21.408;2023-02-15T08:19:46;102319.97;;;11.56;45.67
78313;BME280;67568;47.438;21.408;2023-02-15T08:22:14;102319.66;;;10.69;47.54
78313;BME280;67568;47.438;21.408;2023-02-15T08:24:41;102324.69;;;10.72;48.74
78313;BME280;67568;47.438;21.408;2023-02-15T08:27:10;102323.34;;;10.75;49.15
78313;BME280;67568;47.438;21.408;2023-02-15T08:29:37;102321.69;;;10.57;49.58
78313;BME280;67568;47.438;21.408;2023-02-15T08:32:08;102321.69;;;9.78;50.89
78313;BME280;67568;47.438;21.408;2023-02-15T08:34:38;102321.13;;;9.35;50.05
78313;BME280;67568;47.438;21.408;2023-02-15T08:37:05;102325.16;;;9.16;52.37
78313;BME280;67568;47.438;21.408;2023-02-15T08:39:31;102314.72;;;9.46;51.66
78313;BME280;67568;47.438;21.408;2023-02-15T08:41:58;102318.47;;;9.98;50.27
78313;BME280;67568;47.438;21.408;2023-02-15T08:44:25;102319.28;;;9.98;49.54
78313;BME280;67568;47.438;21.408;2023-02-15T08:46:52;102301.75;;;10.09;49.38
78313;BME280;67568;47.438;21.408;2023-02-15T08:49:20;102318.53;;;10.87;48.00
78313;BME280;67568;47.438;21.408;2023-02-15T08:51:48;102317.66;;;11.25;46.81
78313;BME280;67568;47.438;21.408;2023-02-15T08:54:19;102322.75;;;12.79;42.95
78313;BME280;67568;47.438;21.408;2023-02-15T08:56:46;102314.84;;;13.87;41.62
78313;BME280;67568;47.438;21.408;2023-02-15T08:59:21;102309.25;;;13.77;41.91
78313;BME280;67568;47.438;21.408;2023-02-15T09:01:50;102316.09;;;15.27;38.20
78313;BME280;67568;47.438;21.408;2023-02-15T09:04:18;102320.59;;;15.83;36.82
78313;BME280;67568;47.438;21.408;2023-02-15T09:06:47;102319.09;;;17.18;33.61
78313;BME280;67568;47.438;21.408;2023-02-15T09:09:16;102316.94;;;17.95;32.83
78313;BME280;67568;47.438;21.408;2023-02-15T09:11:46;102322.06;;;18.59;32.36
78313;BME280;67568;47.438;21.408;2023-02-15T09:14:17;102319.13;;;19.24;30.39
78313;BME280;67568;47.438;21.408;2023-02-15T09:16:45;102320.53;;;18.15;31.57
78313;BME280;67568;47.438;21.408;2023-02-15T09:19:13;102311.78;;;16.69;33.08
78313;BME280;67568;47.438;21.408;2023-02-15T09:21:39;102314.44;;;16.84;33.23
78313;BME280;67568;47.438;21.408;2023-02-15T09:24:10;102310.69;;;16.94;33.33
78313;BME280;67568;47.438;21.408;2023-02-15T09:26:41;102308.66;;;15.62;34.88
78313;BME280;67568;47.438;21.408;2023-02-15T09:29:09;102301.53;;;15.36;35.42
78313;BME280;67568;47.438;21.408;2023-02-15T09:31:42;102297.59;;;15.42;34.83
78313;BME280;67568;47.438;21.408;2023-02-15T09:34:10;102308.38;;;14.99;36.55
78313;BME280;67568;47.438;21.408;2023-02-15T09:36:39;102296.44;;;14.83;36.21
78313;BME280;67568;47.438;21.408;2023-02-15T09:39:23;102293.66;;;13.86;38.23
78313;BME280;67568;47.438;21.408;2023-02-15T09:42:15;102301.50;;;14.09;38.77
78313;BME280;67568;47.438;21.408;2023-02-15T09:50:15;102301.75;;;18.48;30.41
78313;BME280;67568;47.438;21.408;2023-02-15T10:01:17;102281.72;;;17.03;32.33
78313;BME280;67568;47.438;21.408;2023-02-15T10:06:51;102279.41;;;17.11;32.08
78313;BME280;67568;47.438;21.408;2023-02-15T10:12:29;102275.44;;;16.63;32.18
78313;BME280;67568;47.438;21.408;2023-02-15T10:18:26;102264.47;;;15.20;35.32
78313;BME280;67568;47.438;21.408;2023-02-15T10:24:12;102249.91;;;14.37;37.51
78313;BME280;67568;47.438;21.408;2023-02-15T10:26:47;102255.28;;;15.14;35.32
78313;BME280;67568;47.438;21.408;2023-02-15T10:29:36;102261.41;;;17.36;32.29
78313;BME280;67568;47.438;21.408;2023-02-15T10:35:00;102247.47;;;15.61;34.65
78313;BME280;67568;47.438;21.408;2023-02-15T10:40:26;102247.00;;;16.80;32.73
78313;BME280;67568;47.438;21.408;2023-02-15T10:45:36;102252.53;;;15.53;33.77
78313;BME280;67568;47.438;21.408;2023-02-15T10:48:34;102249.31;;;16.44;34.04
78313;BME280;67568;47.438;21.408;2023-02-15T10:51:12;102241.44;;;17.80;31.59
78313;BME280;67568;47.438;21.408;2023-02-15T11:02:13;102248.28;;;19.86;28.21
78313;BME280;67568;47.438;21.408;2023-02-15T11:07:43;102243.69;;;21.06;26.65
78313;BME280;67568;47.438;21.408;2023-02-15T11:10:22;102239.38;;;20.38;27.15
78313;BME280;67568;47.438;21.408;2023-02-15T11:12:51;102235.25;;;22.37;23.71
78313;BME280;67568;47.438;21.408;2023-02-15T11:15:35;102234.59;;;20.38;26.92
78313;BME280;67568;47.438;21.408;2023-02-15T11:23:16;102222.31;;;22.27;24.63
78313;BME280;67568;47.438;21.408;2023-02-15T11:25:46;102213.97;;;19.39;27.17
78313;BME280;67568;47.438;21.408;2023-02-15T11:28:27;102224.16;;;19.35;28.13
78313;BME280;67568;47.438;21.408;2023-02-15T11:30:58;102215.75;;;19.94;26.62
78313;BME280;67568;47.438;21.408;2023-02-15T11:33:37;102221.50;;;22.27;23.75
78313;BME280;67568;47.438;21.408;2023-02-15T11:36:13;102222.00;;;21.33;25.46
78313;BME280;67568;47.438;21.408;2023-02-15T11:38:42;102220.38;;;21.49;24.69
78313;BME280;67568;47.438;21.408;2023-02-15T11:41:11;102220.81;;;21.34;25.32
78313;BME280;67568;47.438;21.408;2023-02-15T11:43:44;102211.41;;;20.10;27.16
78313;BME280;67568;47.438;21.408;2023-02-15T11:46:13;102208.75;;;21.86;25.10
78313;BME280;67568;47.438;21.408;2023-02-15T11:48:40;102209.53;;;21.17;25.29
78313;BME280;67568;47.438;21.408;2023-02-15T11:51:22;102194.66;;;21.94;23.29
78313;BME280;67568;47.438;21.408;2023-02-15T11:53:50;102194.34;;;18.56;27.48
78313;BME280;67568;47.438;21.408;2023-02-15T11:56:27;102201.59;;;16.59;31.08
78313;BME280;67568;47.438;21.408;2023-02-15T11:59:04;102186.84;;;15.95;31.76
78313;BME280;67568;47.438;21.408;2023-02-15T12:06:31;102179.59;;;13.23;36.58
78313;BME280;67568;47.438;21.408;2023-02-15T12:09:20;102182.06;;;12.99;36.71
78313;BME280;67568;47.438;21.408;2023-02-15T12:11:52;102171.56;;;12.48;38.70
78313;BME280;67568;47.438;21.408;2023-02-15T12:14:19;102177.50;;;12.20;38.76
78313;BME280;67568;47.438;21.408;2023-02-15T12:16:51;102164.59;;;12.03;39.21
78313;BME280;67568;47.438;21.408;2023-02-15T12:19:39;102159.41;;;11.80;40.44
78313;BME280;67568;47.438;21.408;2023-02-15T12:22:21;102157.28;;;11.87;41.12
78313;BME280;67568;47.438;21.408;2023-02-15T12:24:50;102149.69;;;11.45;41.69
78313;BME280;67568;47.438;21.408;2023-02-15T12:27:25;102153.72;;;11.32;41.89
78313;BME280;67568;47.438;21.408;2023-02-15T12:29:59;102145.47;;;11.10;42.65
78313;BME280;67568;47.438;21.408;2023-02-15T12:32:48;102140.31;;;10.97;43.52
78313;BME280;67568;47.438;21.408;2023-02-15T12:35:27;102135.06;;;10.73;43.56
78313;BME280;67568;47.438;21.408;2023-02-15T12:37:57;102138.66;;;10.96;43.25
78313;BME280;67568;47.438;21.408;2023-02-15T12:40:30;102124.53;;;10.75;44.11
78313;BME280;67568;47.438;21.408;2023-02-15T12:42:57;102130.53;;;10.89;43.82
78313;BME280;67568;47.438;21.408;2023-02-15T12:48:17;102119.63;;;10.33;45.76
78313;BME280;67568;47.438;21.408;2023-02-15T12:50:48;102132.63;;;10.55;45.36
78313;BME280;67568;47.438;21.408;2023-02-15T12:53:34;102130.38;;;10.52;45.59
78313;BME280;67568;47.438;21.408;2023-02-15T12:56:06;102121.00;;;10.58;44.96
78313;BME280;67568;47.438;21.408;2023-02-15T12:58:35;102114.13;;;10.39;45.55
78313;BME280;67568;47.438;21.408;2023-02-15T13:03:38;102119.03;;;10.14;46.82
78313;BME280;67568;47.438;21.408;2023-02-15T13:06:06;102123.97;;;10.29;46.70
78313;BME280;67568;47.438;21.408;2023-02-15T13:08:45;102120.31;;;10.46;46.22
78313;BME280;67568;47.438;21.408;2023-02-15T13:11:21;102121.34;;;10.40;45.42
78313;BME280;67568;47.438;21.408;2023-02-15T13:16:46;102109.09;;;9.97;48.25
78313;BME280;67568;47.438;21.408;2023-02-15T13:19:19;102109.53;;;9.88;46.84
78313;BME280;67568;47.438;21.408;2023-02-15T13:21:51;102102.94;;;10.11;47.43
78313;BME280;67568;47.438;21.408;2023-02-15T13:24:24;102109.81;;;10.09;47.03
78313;BME280;67568;47.438;21.408;2023-02-15T13:26:54;102098.66;;;10.04;46.92
78313;BME280;67568;47.438;21.408;2023-02-15T13:29:43;102107.09;;;9.92;47.88
78313;BME280;67568;47.438;21.408;2023-02-15T13:32:25;102108.09;;;10.03;47.93
78313;BME280;67568;47.438;21.408;2023-02-15T13:34:58;102102.53;;;10.03;47.68
78313;BME280;67568;47.438;21.408;2023-02-15T13:40:55;102098.19;;;9.90;47.62
78313;BME280;67568;47.438;21.408;2023-02-15T13:52:22;102091.34;;;9.76;47.78
78313;BME280;67568;47.438;21.408;2023-02-15T14:00:34;102084.66;;;9.55;47.51
78313;BME280;67568;47.438;21.408;2023-02-15T14:14:37;102083.41;;;9.29;49.28
78313;BME280;67568;47.438;21.408;2023-02-15T14:19:54;102092.03;;;9.32;49.15
78313;BME280;67568;47.438;21.408;2023-02-15T14:22:38;102086.41;;;9.27;49.74
78313;BME280;67568;47.438;21.408;2023-02-15T14:28:14;102084.09;;;8.90;50.63
78313;BME280;67568;47.438;21.408;2023-02-15T14:30:46;102084.47;;;8.94;51.28
78313;BME280;67568;47.438;21.408;2023-02-15T14:36:04;102084.59;;;8.87;52.22
78313;BME280;67568;47.438;21.408;2023-02-15T14:38:42;102077.06;;;8.83;51.90
78313;BME280;67568;47.438;21.408;2023-02-15T14:44:23;102080.78;;;8.76;52.27
78313;BME280;67568;47.438;21.408;2023-02-15T14:47:10;102082.59;;;8.83;50.50
78313;BME280;67568;47.438;21.408;2023-02-15T14:49:42;102079.78;;;8.66;51.81
78313;BME280;67568;47.438;21.408;2023-02-15T14:52:12;102079.53;;;8.67;52.57
78313;BME280;67568;47.438;21.408;2023-02-15T14:59:40;102084.50;;;8.53;52.83
78313;BME280;67568;47.438;21.408;2023-02-15T15:02:19;102076.63;;;8.45;52.19
78313;BME280;67568;47.438;21.408;2023-02-15T15:05:07;102081.41;;;8.38;53.22
78313;BME280;67568;47.438;21.408;2023-02-15T15:08:04;102086.34;;;8.24;53.11
78313;BME280;67568;47.438;21.408;2023-02-15T15:10:44;102085.53;;;8.24;52.29
78313;BME280;67568;47.438;21.408;2023-02-15T15:13:37;102088.06;;;8.14;52.45
78313;BME280;67568;47.438;21.408;2023-02-15T15:18:54;102089.88;;;7.96;54.09
78313;BME280;67568;47.438;21.408;2023-02-15T15:27:42;102089.44;;;7.76;54.04
78313;BME280;67568;47.438;21.408;2023-02-15T15:38:26;102081.63;;;7.49;54.52
78313;BME280;67568;47.438;21.408;2023-02-15T15:49:31;102082.53;;;7.08;55.93
78313;BME280;67568;47.438;21.408;2023-02-15T15:52:08;102079.03;;;7.01;56.05
78313;BME280;67568;47.438;21.408;2023-02-15T15:54:39;102075.69;;;6.98;57.75
78313;BME280;67568;47.438;21.408;2023-02-15T15:57:35;102072.38;;;6.78;58.01
78313;BME280;67568;47.438;21.408;2023-02-15T16:02:51;102073.41;;;6.65;57.82